createdAt,value
2018-05-26T00:01:09.003Z,77.90
2018-05-26T00:03:35.352Z,78.40
2018-05-26T00:06:01.714Z,78.10
2018-05-26T00:08:34.949Z,77.80
2018-05-26T00:11:01.293Z,78.80
2018-05-26T00:13:27.638Z,79.10
2018-05-26T00:15:54.712Z,80.00
2018-05-26T00:18:21.093Z,80.00
2018-05-26T00:20:47.413Z,80.10
2018-05-26T00:23:13.761Z,80.20
2018-05-26T00:25:40.096Z,80.00
2018-05-26T00:28:06.476Z,79.90
2018-05-26T00:30:32.862Z,79.50
2018-05-26T00:32:59.948Z,78.80
2018-05-26T00:35:27.302Z,78.70
2018-05-26T00:37:54.453Z,78.60
2018-05-26T00:40:20.771Z,79.20
2018-05-26T00:42:47.103Z,79.20
2018-05-26T00:45:13.473Z,79.60
2018-05-26T00:47:39.805Z,80.10
2018-05-26T00:50:06.131Z,80.50
2018-05-26T00:52:32.449Z,80.70
2018-05-26T00:54:58.804Z,79.30
2018-05-26T00:57:25.107Z,79.10
2018-05-26T00:59:52.207Z,79.60
2018-05-26T01:02:19.348Z,80.30
2018-05-26T01:04:45.705Z,80.20
2018-05-26T01:07:12.076Z,79.90
2018-05-26T01:09:38.422Z,80.30
2018-05-26T01:12:04.749Z,80.60
2018-05-26T01:14:31.060Z,80.00
2018-05-26T01:16:57.432Z,80.50
2018-05-26T01:19:24.043Z,80.50
2018-05-26T01:21:50.395Z,80.50
2018-05-26T01:24:17.459Z,81.10
2018-05-26T01:26:44.059Z,81.10
2018-05-26T01:29:10.378Z,81.00
2018-05-26T01:31:36.737Z,81.40
2018-05-26T01:34:03.336Z,80.80
2018-05-26T01:36:29.681Z,80.80
2018-05-26T01:38:56.020Z,81.80
2018-05-26T01:41:22.393Z,82.30
2018-05-26T01:43:48.721Z,82.20
2018-05-26T01:46:15.040Z,84.00
2018-05-26T01:48:41.376Z,84.50
2018-05-26T01:51:07.724Z,84.20
2018-05-26T01:53:34.391Z,84.20
2018-05-26T01:56:00.708Z,84.30
2018-05-26T01:58:27.032Z,84.20
2018-05-26T02:00:53.343Z,84.20
2018-05-26T02:03:19.661Z,84.20
2018-05-26T02:05:45.991Z,85.10
2018-05-26T02:08:12.279Z,85.00
2018-05-26T02:10:38.589Z,84.70
2018-05-26T02:13:04.992Z,85.30
2018-05-26T02:15:32.003Z,86.10
2018-05-26T02:17:59.079Z,86.70
2018-05-26T02:20:25.399Z,86.60
2018-05-26T02:22:51.723Z,86.40
2018-05-26T02:25:18.259Z,87.10
2018-05-26T02:27:44.662Z,86.90
2018-05-26T02:30:11.044Z,86.30
2018-05-26T02:32:37.672Z,85.60
2018-05-26T02:35:04.082Z,85.20
2018-05-26T02:37:30.460Z,85.10
2018-05-26T02:39:56.736Z,85.90
2018-05-26T02:42:23.315Z,86.10
2018-05-26T02:44:49.654Z,86.00
2018-05-26T02:47:15.968Z,85.70
2018-05-26T02:49:42.340Z,85.10
2018-05-26T02:52:08.725Z,84.80
2018-05-26T02:54:35.052Z,84.90
2018-05-26T02:57:01.412Z,84.50
2018-05-26T02:59:28.634Z,84.40
2018-05-26T03:01:55.000Z,84.50
2018-05-26T03:04:27.431Z,85.80
2018-05-26T03:06:59.687Z,85.40
2018-05-26T03:09:32.156Z,85.30
2018-05-26T03:12:04.492Z,84.40
2018-05-26T03:14:37.888Z,85.90
2018-05-26T03:17:04.333Z,85.90
2018-05-26T03:19:30.689Z,87.50
2018-05-26T03:21:57.009Z,88.10
2018-05-26T03:24:23.284Z,88.10
2018-05-26T03:26:49.596Z,88.30
2018-05-26T03:29:15.998Z,87.40
2018-05-26T03:31:42.308Z,87.10
2018-05-26T03:34:08.660Z,87.30
2018-05-26T03:36:35.014Z,87.10
2018-05-26T03:39:01.317Z,86.50
2018-05-26T03:41:27.647Z,86.40
2018-05-26T03:43:53.940Z,85.80
2018-05-26T03:46:21.033Z,85.60
2018-05-26T03:48:47.352Z,85.60
2018-05-26T03:51:13.732Z,85.80
2018-05-26T03:53:40.072Z,86.10
2018-05-26T03:56:25.269Z,86.50
2018-05-26T03:59:10.119Z,87.10
2018-05-26T04:01:36.443Z,87.60
2018-05-26T04:04:03.482Z,86.70
2018-05-26T04:06:31.419Z,86.50
2018-05-26T04:08:57.751Z,86.30
2018-05-26T04:11:24.067Z,86.00
2018-05-26T04:13:50.391Z,85.40
2018-05-26T04:16:17.548Z,85.00
2018-05-26T04:18:43.900Z,85.30
2018-05-26T04:21:10.219Z,85.60
2018-05-26T04:23:36.567Z,85.80
2018-05-26T04:26:02.894Z,85.90
2018-05-26T04:28:29.208Z,86.20
2018-05-26T04:30:55.519Z,86.70
2018-05-26T04:33:21.872Z,86.40
2018-05-26T04:35:48.208Z,86.00
2018-05-26T04:38:14.512Z,86.10
2018-05-26T04:40:40.852Z,85.60
2018-05-26T04:43:07.183Z,86.00
2018-05-26T04:45:33.545Z,85.80
2018-05-26T04:47:59.856Z,85.50
2018-05-26T04:50:26.161Z,86.20
2018-05-26T04:52:52.468Z,85.80
2018-05-26T04:55:18.764Z,85.80
2018-05-26T04:57:45.836Z,85.70
2018-05-26T05:00:12.170Z,85.70
2018-05-26T05:02:38.517Z,85.50
2018-05-26T05:05:04.817Z,85.20
2018-05-26T05:07:31.162Z,85.60
2018-05-26T05:09:57.489Z,84.70
2018-05-26T05:12:24.604Z,83.40
2018-05-26T05:14:50.941Z,83.30
2018-05-26T05:17:17.280Z,84.10
2018-05-26T05:19:43.624Z,85.50
2018-05-26T05:22:09.989Z,85.80
2018-05-26T05:24:36.291Z,84.80
2018-05-26T05:27:02.592Z,83.90
2018-05-26T05:29:29.017Z,82.90
2018-05-26T05:31:55.338Z,81.80
2018-05-26T05:34:22.471Z,80.80
2018-05-26T05:36:48.771Z,80.70
2018-05-26T05:39:15.108Z,82.20
2018-05-26T05:41:41.431Z,81.30
2018-05-26T05:44:07.770Z,80.90
2018-05-26T05:46:34.117Z,80.20
2018-05-26T05:49:00.468Z,79.30
2018-05-26T05:51:28.254Z,80.40
2018-05-26T05:53:54.591Z,80.50
2018-05-26T05:56:20.988Z,80.40
2018-05-26T05:58:47.231Z,79.80
2018-05-26T06:01:13.544Z,79.40
2018-05-26T06:03:40.589Z,80.00
2018-05-26T06:06:07.647Z,79.70
2018-05-26T06:08:33.957Z,79.70
2018-05-26T06:11:00.291Z,79.90
2018-05-26T06:13:26.649Z,80.30
2018-05-26T06:15:52.952Z,80.10
2018-05-26T06:18:19.280Z,80.10
2018-05-26T06:20:46.366Z,78.80
2018-05-26T06:23:12.754Z,78.80
2018-05-26T06:25:39.059Z,79.00
2018-05-26T06:28:05.387Z,78.60
2018-05-26T06:30:31.704Z,78.50
2018-05-26T06:32:58.052Z,78.30
2018-05-26T06:35:24.410Z,78.30
2018-05-26T06:37:50.761Z,78.60
2018-05-26T06:40:17.075Z,77.20
2018-05-26T06:42:43.454Z,77.10
2018-05-26T06:45:09.754Z,75.10
2018-05-26T06:47:36.151Z,75.30
2018-05-26T06:50:03.196Z,74.90
2018-05-26T06:52:30.255Z,75.20
2018-05-26T06:54:57.331Z,75.20
2018-05-26T06:57:23.633Z,75.20
2018-05-26T06:59:49.958Z,75.10
2018-05-26T07:02:16.314Z,74.60
2018-05-26T07:04:42.682Z,74.40
2018-05-26T07:07:09.025Z,73.90
2018-05-26T07:09:35.405Z,73.50
2018-05-26T07:12:01.757Z,72.80
2018-05-26T07:14:28.090Z,71.70
2018-05-26T07:16:54.444Z,71.50
2018-05-26T07:19:20.803Z,70.00
2018-05-26T07:21:47.137Z,69.20
2018-05-26T07:24:13.508Z,67.70
2018-05-26T07:26:39.835Z,68.30
2018-05-26T07:29:06.195Z,67.60
2018-05-26T07:31:32.503Z,64.20
2018-05-26T07:33:58.854Z,64.20
2018-05-26T07:36:25.945Z,64.50
2018-05-26T07:38:52.265Z,64.50
2018-05-26T07:41:18.629Z,63.50
2018-05-26T07:43:44.968Z,62.80
2018-05-26T07:46:11.295Z,62.80
2018-05-26T07:48:37.662Z,62.00
2018-05-26T07:51:04.745Z,58.80
2018-05-26T07:53:31.053Z,58.80
2018-05-26T07:55:57.419Z,59.40
2018-05-26T07:58:23.739Z,59.30
2018-05-26T08:00:50.049Z,59.70
2018-05-26T08:03:16.453Z,58.60
2018-05-26T08:05:42.877Z,59.60
2018-05-26T08:08:09.221Z,58.30
2018-05-26T08:10:36.303Z,57.30
2018-05-26T08:13:03.644Z,57.20
2018-05-26T08:15:29.976Z,57.90
2018-05-26T08:17:56.314Z,57.60
2018-05-26T08:20:22.633Z,58.40
2018-05-26T08:22:49.004Z,59.30
2018-05-26T08:25:15.350Z,59.20
2018-05-26T08:27:41.835Z,58.80
2018-05-26T08:30:08.249Z,58.00
2018-05-26T08:32:34.617Z,57.10
2018-05-26T08:35:00.942Z,56.90
2018-05-26T08:37:27.336Z,56.00
2018-05-26T08:39:53.724Z,56.40
2018-05-26T08:42:20.064Z,56.40
2018-05-26T08:44:46.389Z,55.90
2018-05-26T08:47:12.711Z,55.10
2018-05-26T08:49:39.061Z,55.30
2018-05-26T08:52:05.371Z,53.60
2018-05-26T08:54:31.707Z,53.40
2018-05-26T08:56:58.039Z,52.80
2018-05-26T08:59:24.381Z,53.20
2018-05-26T09:01:50.733Z,54.70
2018-05-26T09:04:17.040Z,55.30
2018-05-26T09:06:43.342Z,55.30
2018-05-26T09:09:09.699Z,54.20
2018-05-26T09:11:36.075Z,53.40
2018-05-26T09:14:02.461Z,53.10
2018-05-26T09:16:29.590Z,51.80
2018-05-26T09:18:56.721Z,51.60
2018-05-26T09:21:23.763Z,52.50
2018-05-26T09:23:50.091Z,52.50
2018-05-26T09:26:16.464Z,50.50
2018-05-26T09:28:43.496Z,52.10
2018-05-26T09:31:09.830Z,52.10
2018-05-26T09:33:36.144Z,51.70
2018-05-26T09:36:03.306Z,50.30
2018-05-26T09:38:29.621Z,49.50
2018-05-26T09:40:55.957Z,47.90
2018-05-26T09:43:22.275Z,48.20
2018-05-26T09:45:48.585Z,48.80
2018-05-26T09:48:14.929Z,49.70
2018-05-26T09:50:42.093Z,49.90
2018-05-26T09:53:08.416Z,49.40
2018-05-26T09:55:34.775Z,50.00
2018-05-26T09:58:01.863Z,50.00
2018-05-26T10:00:28.240Z,50.00
2018-05-26T10:02:54.644Z,48.70
2018-05-26T10:05:20.992Z,49.00
2018-05-26T10:07:47.349Z,50.10
2018-05-26T10:10:14.418Z,48.70
2018-05-26T10:12:40.791Z,48.60
2018-05-26T10:15:07.093Z,48.70
2018-05-26T10:17:33.435Z,48.80
2018-05-26T10:19:59.819Z,48.70
2018-05-26T10:22:26.104Z,48.60
2018-05-26T10:24:52.408Z,49.90
2018-05-26T10:27:18.736Z,48.50
2018-05-26T10:29:45.101Z,49.20
2018-05-26T10:32:18.404Z,50.10
2018-05-26T10:34:45.684Z,47.60
2018-05-26T10:37:12.101Z,47.40
2018-05-26T10:39:39.176Z,47.40
2018-05-26T10:42:06.268Z,47.30
2018-05-26T10:44:32.719Z,47.20
2018-05-26T10:46:59.060Z,47.70
2018-05-26T10:49:25.389Z,48.30
2018-05-26T10:51:52.465Z,47.80
2018-05-26T10:54:19.673Z,47.90
2018-05-26T10:56:45.998Z,48.60
2018-05-26T10:59:12.347Z,47.50
2018-05-26T11:01:38.704Z,46.30
2018-05-26T11:04:05.064Z,47.20
2018-05-26T11:06:45.452Z,45.30
2018-05-26T11:09:11.784Z,45.20
2018-05-26T11:11:38.140Z,48.20
2018-05-26T11:14:04.485Z,44.60
2018-05-26T11:16:30.892Z,46.00
2018-05-26T11:18:57.299Z,45.20
2018-05-26T11:21:23.567Z,45.60
2018-05-26T11:23:52.571Z,44.70
2018-05-26T11:26:25.955Z,46.10
2018-05-26T11:28:52.342Z,44.80
2018-05-26T11:31:18.665Z,44.40
2018-05-26T11:33:44.974Z,43.20
2018-05-26T11:36:11.295Z,42.70
2018-05-26T11:38:37.587Z,42.30
2018-05-26T11:41:03.940Z,41.60
2018-05-26T11:43:30.317Z,41.10
2018-05-26T11:45:56.615Z,41.60
2018-05-26T11:48:22.943Z,41.50
2018-05-26T11:50:49.259Z,40.90
2018-05-26T11:53:15.636Z,40.70
2018-05-26T11:55:42.635Z,40.20
2018-05-26T11:58:08.940Z,40.20
2018-05-26T12:00:35.289Z,40.20
2018-05-26T12:03:01.653Z,38.70
2018-05-26T12:05:28.004Z,38.40
2018-05-26T12:07:54.374Z,38.00
2018-05-26T12:10:20.737Z,39.00
2018-05-26T12:12:47.079Z,37.90
2018-05-26T12:15:13.444Z,38.20
2018-05-26T12:17:39.779Z,37.90
2018-05-26T12:20:06.112Z,37.30
2018-05-26T12:22:32.439Z,38.00
2018-05-26T12:24:58.761Z,37.50
2018-05-26T12:27:25.059Z,39.20
2018-05-26T12:29:51.387Z,40.40
2018-05-26T12:32:17.671Z,39.10
2018-05-26T12:34:44.784Z,38.90
2018-05-26T12:37:11.104Z,38.80
2018-05-26T12:39:37.420Z,39.50
2018-05-26T12:42:03.718Z,40.30
2018-05-26T12:44:30.063Z,39.40
2018-05-26T12:46:56.375Z,39.60
2018-05-26T12:49:23.511Z,39.50
2018-05-26T12:51:49.841Z,39.20
2018-05-26T12:54:16.176Z,39.00
2018-05-26T12:56:42.483Z,39.20
2018-05-26T12:59:08.832Z,39.20
2018-05-26T13:01:35.140Z,38.20
2018-05-26T13:04:01.539Z,37.60
2018-05-26T13:06:27.860Z,37.70
2018-05-26T13:08:54.202Z,37.20
2018-05-26T13:11:20.533Z,37.00
2018-05-26T13:13:47.610Z,37.10
2018-05-26T13:16:13.946Z,37.00
2018-05-26T13:18:40.327Z,37.20
2018-05-26T13:21:06.689Z,36.90
2018-05-26T13:23:33.033Z,37.00
2018-05-26T13:25:59.351Z,37.60
2018-05-26T13:28:25.675Z,36.00
2018-05-26T13:30:52.758Z,37.80
2018-05-26T13:33:19.809Z,38.90
2018-05-26T13:35:46.139Z,38.20
2018-05-26T13:38:12.483Z,38.30
2018-05-26T13:40:38.797Z,38.00
2018-05-26T13:43:05.119Z,38.10
2018-05-26T13:45:31.468Z,37.50
2018-05-26T13:47:57.803Z,37.80
2018-05-26T13:50:24.135Z,35.00
2018-05-26T13:52:50.521Z,34.60
2018-05-26T13:55:16.879Z,35.20
2018-05-26T13:57:43.123Z,35.60
2018-05-26T14:00:09.480Z,35.80
2018-05-26T14:02:36.553Z,35.10
2018-05-26T14:05:02.898Z,35.10
2018-05-26T14:07:29.232Z,34.60
2018-05-26T14:09:55.564Z,33.90
2018-05-26T14:12:21.882Z,35.50
2018-05-26T14:14:48.248Z,34.30
2018-05-26T14:17:14.638Z,34.80
2018-05-26T14:19:40.928Z,34.00
2018-05-26T14:22:07.291Z,34.40
2018-05-26T14:24:33.609Z,33.90
2018-05-26T14:26:59.904Z,34.60
2018-05-26T14:29:26.277Z,34.70
2018-05-26T14:31:52.620Z,34.30
2018-05-26T14:34:18.991Z,32.90
2018-05-26T14:36:45.380Z,33.40
2018-05-26T14:39:11.723Z,32.50
2018-05-26T14:41:38.098Z,33.70
2018-05-26T14:44:04.458Z,34.70
2018-05-26T14:46:30.787Z,34.50
2018-05-26T14:48:57.093Z,33.30
2018-05-26T14:51:24.161Z,33.80
2018-05-26T14:53:50.487Z,33.70
2018-05-26T14:56:16.852Z,33.90
2018-05-26T14:58:43.184Z,33.20
2018-05-26T15:01:09.552Z,32.40
2018-05-26T15:03:36.620Z,32.20
2018-05-26T15:06:02.972Z,32.20
2018-05-26T15:08:29.304Z,33.20
2018-05-26T15:10:55.796Z,33.00
2018-05-26T15:13:22.872Z,33.40
2018-05-26T15:15:49.930Z,33.60
2018-05-26T15:18:16.231Z,33.60
2018-05-26T15:20:42.543Z,35.90
2018-05-26T15:23:09.733Z,34.60
2018-05-26T15:25:36.677Z,34.50
2018-05-26T15:28:03.796Z,36.10
2018-05-26T15:30:30.852Z,36.10
2018-05-26T15:32:57.180Z,36.10
2018-05-26T15:35:23.487Z,36.30
2018-05-26T15:37:51.443Z,36.10
2018-05-26T15:40:17.781Z,36.00
2018-05-26T15:42:44.844Z,36.50
2018-05-26T15:45:11.909Z,36.80
2018-05-26T15:47:38.255Z,36.80
2018-05-26T15:50:05.167Z,36.60
2018-05-26T15:52:31.530Z,37.40
2018-05-26T15:54:57.883Z,37.90
2018-05-26T15:57:25.179Z,37.30
2018-05-26T15:59:51.584Z,36.60
2018-05-26T16:02:17.992Z,36.00
2018-05-26T16:04:44.472Z,36.00
2018-05-26T16:07:10.853Z,36.40
2018-05-26T16:09:37.228Z,36.10
2018-05-26T16:12:03.582Z,35.40
2018-05-26T16:14:30.009Z,35.90
2018-05-26T16:16:56.422Z,36.20
2018-05-26T16:19:22.753Z,36.50
2018-05-26T16:21:49.095Z,36.70
2018-05-26T16:24:15.425Z,36.50
2018-05-26T16:26:41.827Z,36.40
2018-05-26T16:29:08.902Z,35.60
2018-05-26T16:31:35.264Z,34.90
2018-05-26T16:34:01.811Z,34.70
2018-05-26T16:36:28.154Z,34.50
2018-05-26T16:38:55.287Z,35.70
2018-05-26T16:41:22.613Z,35.10
2018-05-26T16:43:49.030Z,34.90
2018-05-26T16:46:15.380Z,36.60
2018-05-26T16:48:41.705Z,35.10
2018-05-26T16:51:08.035Z,34.20
2018-05-26T16:53:34.355Z,34.70
2018-05-26T16:56:00.660Z,33.90
2018-05-26T16:58:27.026Z,34.20
2018-05-26T17:00:53.386Z,34.20
2018-05-26T17:03:19.717Z,33.40
2018-05-26T17:05:46.073Z,33.80
2018-05-26T17:08:12.413Z,33.00
2018-05-26T17:10:38.754Z,33.30
2018-05-26T17:13:05.121Z,33.20
2018-05-26T17:15:31.513Z,34.00
2018-05-26T17:17:57.865Z,34.10
2018-05-26T17:20:24.222Z,37.00
2018-05-26T17:22:50.531Z,38.70
2018-05-26T17:25:16.908Z,39.40
2018-05-26T17:27:43.949Z,40.60
2018-05-26T17:30:11.014Z,40.60
2018-05-26T17:32:38.106Z,41.20
2018-05-26T17:35:05.125Z,41.20
2018-05-26T17:37:31.476Z,42.00
2018-05-26T17:39:57.814Z,42.20
2018-05-26T17:42:24.122Z,42.40
2018-05-26T17:44:50.459Z,42.60
2018-05-26T17:47:16.793Z,41.90
2018-05-26T17:49:43.941Z,42.60
2018-05-26T17:52:10.265Z,43.00
2018-05-26T17:54:36.658Z,43.50
2018-05-26T17:57:03.002Z,43.80
2018-05-26T17:59:29.454Z,43.50
2018-05-26T18:01:55.761Z,43.80
2018-05-26T18:04:22.070Z,43.60
2018-05-26T18:06:48.405Z,43.80
2018-05-26T18:09:14.757Z,43.50
2018-05-26T18:11:41.139Z,44.00
2018-05-26T18:14:07.463Z,44.30
2018-05-26T18:16:33.788Z,44.30
2018-05-26T18:19:00.224Z,43.30
2018-05-26T18:21:26.571Z,43.90
2018-05-26T18:23:52.928Z,44.20
2018-05-26T18:26:19.352Z,43.90
2018-05-26T18:28:45.701Z,44.00
2018-05-26T18:31:12.011Z,44.60
2018-05-26T18:33:38.377Z,44.50
2018-05-26T18:36:04.782Z,45.00
2018-05-26T18:38:31.128Z,45.20
2018-05-26T18:40:57.504Z,45.40
2018-05-26T18:43:23.858Z,45.80
2018-05-26T18:45:50.236Z,46.00
2018-05-26T18:48:16.548Z,46.00
2018-05-26T18:50:42.881Z,46.20
2018-05-26T18:53:09.208Z,46.60
2018-05-26T18:55:35.561Z,46.80
2018-05-26T19:00:38.641Z,48.40
2018-05-26T19:03:04.989Z,48.30
2018-05-26T19:05:31.350Z,49.00
2018-05-26T19:07:58.447Z,49.20
2018-05-26T19:10:24.852Z,49.10
2018-05-26T19:12:51.200Z,49.10
2018-05-26T19:15:17.569Z,49.10
2018-05-26T19:17:44.582Z,49.10
2018-05-26T19:20:10.913Z,49.20
2018-05-26T19:22:37.243Z,49.10
2018-05-26T19:25:03.641Z,49.50
2018-05-26T19:27:30.729Z,50.40
2018-05-26T19:29:57.135Z,50.40
2018-05-26T19:32:23.590Z,51.20
2018-05-26T19:34:49.981Z,52.30
2018-05-26T19:37:19.223Z,53.40
2018-05-26T19:39:45.607Z,53.20
2018-05-26T19:42:11.978Z,54.80
2018-05-26T19:44:38.315Z,55.70
2018-05-26T19:47:04.738Z,56.80
2018-05-26T19:49:31.101Z,57.30
2018-05-26T19:51:57.464Z,57.30
2018-05-26T19:54:23.791Z,57.20
2018-05-26T19:56:50.166Z,57.60
2018-05-26T19:59:17.620Z,58.20
2018-05-26T20:01:43.962Z,58.60
2018-05-26T20:04:10.329Z,59.30
2018-05-26T20:06:37.421Z,59.60
2018-05-26T20:09:04.659Z,59.60
2018-05-26T20:11:31.003Z,59.90
2018-05-26T20:13:57.367Z,60.20
2018-05-26T20:16:23.676Z,60.30
2018-05-26T20:18:50.112Z,60.20
2018-05-26T20:21:16.478Z,60.30
2018-05-26T20:23:42.870Z,60.70
2018-05-26T20:26:09.187Z,61.30
2018-05-26T20:28:35.562Z,61.30
2018-05-26T20:31:02.558Z,61.60
2018-05-26T20:33:28.910Z,61.90
2018-05-26T20:35:55.331Z,62.60
2018-05-26T20:38:22.275Z,63.00
2018-05-26T20:40:48.648Z,62.80
2018-05-26T20:43:15.009Z,63.00
2018-05-26T20:45:41.411Z,63.70
2018-05-26T20:48:08.495Z,63.40
2018-05-26T20:50:34.928Z,63.40
2018-05-26T20:53:01.418Z,64.40
2018-05-26T20:55:28.508Z,64.00
2018-05-26T20:57:54.829Z,64.00
2018-05-26T21:00:21.216Z,63.70
2018-05-26T21:02:47.548Z,64.10
2018-05-26T21:05:13.890Z,65.10
2018-05-26T21:07:40.366Z,64.90
2018-05-26T21:10:06.763Z,65.00
2018-05-26T21:12:33.181Z,65.10
2018-05-26T21:14:59.514Z,65.10
2018-05-26T21:17:26.632Z,65.20
2018-05-26T21:19:53.018Z,65.00
2018-05-26T21:22:20.978Z,65.00
2018-05-26T21:24:47.356Z,65.00
2018-05-26T21:27:13.798Z,64.90
2018-05-26T21:29:40.146Z,65.00
2018-05-26T21:32:07.281Z,66.10
2018-05-26T21:34:33.661Z,66.10
2018-05-26T21:36:59.977Z,66.10
2018-05-26T21:39:26.384Z,66.70
2018-05-26T21:41:52.745Z,66.80
2018-05-26T21:44:22.937Z,67.10
2018-05-26T21:46:49.315Z,67.40
2018-05-26T21:49:15.684Z,67.90
2018-05-26T21:51:42.817Z,68.00
2018-05-26T21:54:09.166Z,68.00
2018-05-26T21:56:36.233Z,67.50
2018-05-26T21:59:03.629Z,67.50
2018-05-26T22:01:30.699Z,67.90
2018-05-26T22:03:57.100Z,68.00
2018-05-26T22:06:23.480Z,68.40
2018-05-26T22:08:51.609Z,68.40
2018-05-26T22:11:18.025Z,68.30
2018-05-26T22:13:44.372Z,68.50
2018-05-26T22:16:10.711Z,68.70
2018-05-26T22:18:37.705Z,69.00
2018-05-26T22:21:04.115Z,69.20
2018-05-26T22:23:31.224Z,70.20
2018-05-26T22:25:59.570Z,70.20
2018-05-26T22:28:27.513Z,69.90
2018-05-26T22:30:54.649Z,70.50
2018-05-26T22:33:20.981Z,70.50
2018-05-26T22:35:48.108Z,71.00
2018-05-26T22:38:14.446Z,71.00
2018-05-26T22:40:42.300Z,71.40
2018-05-26T22:43:10.380Z,71.00
2018-05-26T22:45:36.764Z,70.90
2018-05-26T22:48:04.284Z,70.40
2018-05-26T22:50:31.430Z,68.90
2018-05-26T22:52:58.545Z,69.30
2018-05-26T22:55:25.734Z,70.10
2018-05-26T22:57:52.892Z,70.60
2018-05-26T23:00:19.260Z,70.60
2018-05-26T23:02:45.598Z,70.90
2018-05-26T23:05:11.922Z,70.90
2018-05-26T23:07:38.319Z,71.20
2018-05-26T23:10:04.700Z,71.60
2018-05-26T23:12:31.069Z,71.40
2018-05-26T23:14:58.021Z,71.30
2018-05-26T23:17:24.418Z,71.10
2018-05-26T23:19:51.471Z,71.20
2018-05-26T23:22:17.806Z,70.70
2018-05-26T23:24:44.152Z,70.80
2018-05-26T23:27:10.517Z,71.10
2018-05-26T23:29:36.908Z,70.80
2018-05-26T23:32:04.951Z,70.70
2018-05-26T23:34:31.293Z,70.70
2018-05-26T23:36:57.643Z,71.60
2018-05-26T23:39:24.017Z,72.60
2018-05-26T23:41:51.127Z,72.90
2018-05-26T23:44:17.454Z,72.90
2018-05-26T23:46:43.845Z,72.90
2018-05-26T23:49:10.945Z,73.50
2018-05-26T23:51:37.273Z,72.70
2018-05-26T23:54:03.702Z,72.80
2018-05-26T23:56:30.024Z,72.90
2018-05-26T23:58:56.348Z,72.80
